Time;durP1;ratioP1;P1;durP2;ratioP2;P2;SDS_P1;SDS_P2;PMS_P1;PMS_P2;Temp;Humidity;BMP_temperature;BMP_pressure;BME280_temperature;BME280_humidity;BME280_pressure;Samples;Min_cycle;Max_cycle;Signal;HPM_P1;HPM_P2
2023/10/26 00:00:57;;;;;;;35.70;3.53;;;30.40;49.70;;;;;;5052775;28;20048;-63
2023/10/26 00:03:24;;;;;;;22.33;2.95;;;30.30;49.70;;;;;;5049238;28;20060;-58
2023/10/26 00:05:50;;;;;;;19.83;2.80;;;30.20;49.80;;;;;;5048708;28;20139;-60
2023/10/26 00:08:17;;;;;;;19.17;3.67;;;30.20;49.90;;;;;;5052592;28;20533;-61
2023/10/26 00:10:43;;;;;;;23.85;3.05;;;30.10;49.80;;;;;;5049166;28;20074;-59
2023/10/26 00:13:10;;;;;;;20.15;3.20;;;30.10;49.80;;;;;;5048883;28;20597;-59
2023/10/26 00:15:36;;;;;;;25.95;3.08;;;30.10;50.10;;;;;;5048553;28;20061;-60
2023/10/26 00:18:03;;;;;;;20.30;3.10;;;30.00;50.10;;;;;;5050432;28;20119;-59
2023/10/26 00:20:30;;;;;;;18.98;3.00;;;29.90;50.20;;;;;;5049065;28;20051;-60
2023/10/26 00:22:57;;;;;;;28.73;3.17;;;29.90;50.30;;;;;;5047999;28;20052;-59
2023/10/26 00:25:23;;;;;;;34.60;4.05;;;29.70;50.30;;;;;;5048724;28;20078;-59
2023/10/26 00:27:51;;;;;;;20.95;3.40;;;29.60;50.60;;;;;;5056636;28;20048;-59
2023/10/26 00:30:18;;;;;;;30.85;3.85;;;29.40;50.90;;;;;;5049041;28;20055;-61
2023/10/26 00:32:44;;;;;;;38.65;6.45;;;29.40;51.10;;;;;;5050396;28;20132;-58
2023/10/26 00:35:11;;;;;;;38.80;4.05;;;29.30;51.10;;;;;;5049230;28;20425;-59
2023/10/26 00:37:37;;;;;;;25.88;2.80;;;29.20;51.30;;;;;;5049126;28;20501;-60
2023/10/26 00:40:04;;;;;;;33.97;3.83;;;29.10;51.50;;;;;;5048083;28;20430;-58
2023/10/26 00:42:30;;;;;;;30.27;3.33;;;29.00;51.70;;;;;;5048565;28;20544;-58
2023/10/26 00:44:57;;;;;;;32.20;3.13;;;28.90;51.80;;;;;;5047148;28;20071;-60
2023/10/26 00:47:25;;;;;;;35.45;4.18;;;28.90;52.00;;;;;;5049045;28;20533;-59
2023/10/26 00:49:53;;;;;;;30.33;3.38;;;28.80;52.30;;;;;;5050375;28;20084;-61
2023/10/26 00:52:21;;;;;;;22.92;3.30;;;28.70;52.40;;;;;;5047572;28;20070;-59
2023/10/26 00:54:48;;;;;;;30.92;3.60;;;28.70;52.50;;;;;;5047253;28;20106;-60
2023/10/26 00:57:18;;;;;;;21.42;3.55;;;28.60;52.60;;;;;;5048509;28;20068;-59
2023/10/26 00:59:46;;;;;;;26.23;4.18;;;28.50;52.60;;;;;;5047458;28;20059;-61
2023/10/26 01:02:14;;;;;;;28.60;3.58;;;28.40;53.10;;;;;;5047993;28;20058;-61
2023/10/26 01:04:41;;;;;;;27.10;3.47;;;28.40;53.50;;;;;;5048011;28;20184;-61
2023/10/26 01:07:07;;;;;;;30.55;3.95;;;28.30;54.00;;;;;;5047466;28;20060;-61
2023/10/26 01:09:34;;;;;;;18.73;4.55;;;28.20;54.50;;;;;;5048384;28;20081;-61
2023/10/26 01:12:01;;;;;;;30.20;3.75;;;28.20;54.70;;;;;;5047809;28;20394;-61
2023/10/26 01:14:28;;;;;;;29.92;3.72;;;28.20;55.00;;;;;;5047459;28;20082;-61
2023/10/26 01:16:57;;;;;;;33.22;4.40;;;28.10;55.20;;;;;;5047732;28;20486;-60
2023/10/26 01:19:37;;;;;;;40.00;4.53;;;28.00;55.60;;;;;;5047708;28;20077;-62
2023/10/26 01:22:04;;;;;;;38.30;3.88;;;28.00;56.10;;;;;;5046834;28;20083;-60
2023/10/26 01:24:30;;;;;;;43.35;4.18;;;27.90;56.30;;;;;;5047788;28;20082;-60
2023/10/26 01:26:57;;;;;;;27.40;3.83;;;27.80;56.50;;;;;;5047248;28;20072;-60
2023/10/26 01:29:23;;;;;;;28.83;3.88;;;27.70;56.90;;;;;;5047034;28;20078;-61
2023/10/26 01:31:50;;;;;;;26.65;4.47;;;27.60;57.10;;;;;;5047962;28;20073;-60
2023/10/26 01:34:16;;;;;;;25.40;3.33;;;27.60;57.10;;;;;;5047176;28;20114;-61
2023/10/26 01:36:42;;;;;;;25.35;3.40;;;27.50;57.20;;;;;;5047220;28;20056;-61
2023/10/26 01:39:09;;;;;;;35.83;3.72;;;27.50;57.60;;;;;;5047881;28;20073;-60
2023/10/26 01:41:35;;;;;;;33.88;4.47;;;27.40;57.90;;;;;;5063528;28;20083;-60
2023/10/26 01:44:03;;;;;;;29.85;3.78;;;27.50;58.10;;;;;;5050454;28;20081;-57
2023/10/26 01:46:29;;;;;;;32.60;4.78;;;27.40;58.50;;;;;;5047730;28;20071;-60
2023/10/26 01:48:56;;;;;;;21.13;4.60;;;27.40;58.70;;;;;;5050901;28;20100;-60
2023/10/26 01:51:22;;;;;;;35.13;4.82;;;27.30;58.80;;;;;;5060040;28;20162;-59
2023/10/26 01:53:49;;;;;;;28.02;4.10;;;27.30;59.00;;;;;;5045239;28;20433;-58
2023/10/26 01:56:15;;;;;;;34.25;4.50;;;27.20;59.10;;;;;;5047549;28;20409;-60
2023/10/26 01:58:41;;;;;;;29.08;3.78;;;27.20;59.50;;;;;;5047684;28;20598;-60
2023/10/26 02:01:08;;;;;;;34.90;4.38;;;27.10;59.90;;;;;;5054006;28;20548;-60
2023/10/26 02:03:34;;;;;;;35.08;5.35;;;27.10;60.10;;;;;;5051461;28;20557;-58
2023/10/26 02:06:03;;;;;;;27.98;4.22;;;27.00;60.40;;;;;;5047479;28;20072;-60
2023/10/26 02:08:29;;;;;;;37.00;4.47;;;27.00;60.80;;;;;;5051123;28;20231;-60
2023/10/26 02:10:56;;;;;;;25.80;3.78;;;26.90;61.40;;;;;;5045887;28;20482;-60
2023/10/26 02:13:23;;;;;;;33.97;4.18;;;26.90;62.20;;;;;;5048137;28;20078;-60
2023/10/26 02:15:49;;;;;;;27.42;3.70;;;26.80;62.90;;;;;;5050525;28;20071;-60
2023/10/26 02:18:15;;;;;;;34.75;4.13;;;26.80;63.60;;;;;;5047115;28;20079;-60
2023/10/26 02:20:42;;;;;;;25.75;3.38;;;26.80;64.00;;;;;;5047793;28;20068;-58
2023/10/26 02:23:08;;;;;;;21.23;3.67;;;26.70;64.70;;;;;;5047062;28;20080;-58
2023/10/26 02:25:35;;;;;;;32.00;3.90;;;26.60;64.10;;;;;;5047635;28;20083;-59
2023/10/26 02:28:01;;;;;;;31.05;3.88;;;26.60;65.30;;;;;;5051848;28;20081;-59
2023/10/26 02:30:28;;;;;;;29.65;4.50;;;26.60;65.50;;;;;;5061986;28;20078;-58
2023/10/26 02:32:54;;;;;;;28.48;4.07;;;26.50;65.70;;;;;;5063819;28;20074;-59
2023/10/26 02:35:21;;;;;;;42.30;4.20;;;26.40;66.20;;;;;;5047539;28;20395;-59
2023/10/26 02:37:48;;;;;;;29.45;3.67;;;26.40;66.50;;;;;;5046494;28;20071;-54
2023/10/26 02:40:16;;;;;;;32.05;3.78;;;26.40;67.00;;;;;;5047234;28;20108;-59
2023/10/26 02:42:43;;;;;;;35.55;4.97;;;26.30;67.50;;;;;;5052538;28;20575;-59
2023/10/26 02:45:09;;;;;;;26.00;3.50;;;26.30;67.90;;;;;;5046239;28;20161;-58
2023/10/26 02:47:37;;;;;;;21.05;3.90;;;26.20;68.70;;;;;;5046599;28;20075;-60
2023/10/26 02:50:06;;;;;;;32.72;4.05;;;26.20;69.50;;;;;;5052281;28;20093;-56
2023/10/26 02:52:32;;;;;;;16.02;4.10;;;26.20;70.10;;;;;;5047033;28;20126;-60
2023/10/26 02:54:59;;;;;;;20.25;4.57;;;26.20;70.80;;;;;;5045606;28;20543;-57
2023/10/26 02:57:25;;;;;;;26.08;4.68;;;26.10;71.80;;;;;;5046335;28;20149;-59
2023/10/26 02:59:51;;;;;;;23.42;5.00;;;26.10;72.50;;;;;;5045959;28;20088;-59
2023/10/26 03:02:18;;;;;;;29.88;4.45;;;26.00;73.40;;;;;;5045511;28;20111;-55
2023/10/26 03:04:44;;;;;;;24.25;4.70;;;25.90;74.30;;;;;;5046239;28;20122;-58
2023/10/26 03:07:11;;;;;;;17.50;3.97;;;25.90;75.00;;;;;;5044453;28;20443;-54
2023/10/26 03:09:38;;;;;;;18.38;4.63;;;25.90;75.50;;;;;;5045446;28;20142;-61
2023/10/26 03:12:04;;;;;;;25.45;5.05;;;25.90;76.30;;;;;;5045893;28;20072;-61
2023/10/26 03:14:31;;;;;;;22.55;4.03;;;25.80;77.20;;;;;;5046653;28;20552;-62
2023/10/26 03:16:58;;;;;;;21.83;5.05;;;25.70;77.90;;;;;;5046855;28;20178;-60
2023/10/26 03:19:24;;;;;;;23.15;4.53;;;25.70;78.40;;;;;;5052279;28;20174;-60
2023/10/26 03:21:50;;;;;;;24.80;5.57;;;25.70;79.20;;;;;;5044802;28;20080;-58
2023/10/26 03:24:17;;;;;;;31.17;4.80;;;25.70;79.60;;;;;;5049472;28;20459;-59
2023/10/26 03:26:43;;;;;;;23.73;5.60;;;25.70;80.10;;;;;;5050753;28;20086;-60
2023/10/26 03:29:10;;;;;;;21.77;5.00;;;25.60;80.90;;;;;;5050205;28;20097;-60
2023/10/26 03:31:37;;;;;;;21.98;4.65;;;25.60;81.30;;;;;;5050216;28;20455;-59
2023/10/26 03:34:04;;;;;;;24.83;5.38;;;25.50;81.70;;;;;;5050524;28;20535;-59
2023/10/26 03:36:30;;;;;;;24.40;4.35;;;25.50;82.00;;;;;;5049743;28;20566;-60
2023/10/26 03:38:57;;;;;;;22.60;4.22;;;25.50;82.30;;;;;;5048734;28;20084;-61
2023/10/26 03:41:24;;;;;;;24.08;4.63;;;25.40;82.80;;;;;;5049174;28;20172;-58
2023/10/26 03:43:50;;;;;;;17.73;5.32;;;25.40;83.50;;;;;;5049089;28;20099;-59
2023/10/26 03:46:17;;;;;;;20.40;4.47;;;25.30;83.90;;;;;;5049133;28;20081;-58
2023/10/26 03:48:43;;;;;;;21.65;4.80;;;25.30;84.20;;;;;;5050888;28;20092;-59
2023/10/26 03:51:10;;;;;;;21.15;4.93;;;25.30;84.60;;;;;;5069168;28;20097;-61
2023/10/26 03:53:37;;;;;;;20.30;4.40;;;25.30;85.10;;;;;;5049738;28;20064;-59
2023/10/26 03:56:04;;;;;;;25.60;5.07;;;25.20;85.40;;;;;;5049798;28;20444;-58
2023/10/26 03:58:30;;;;;;;30.10;6.38;;;25.20;86.00;;;;;;5055271;28;20079;-61
2023/10/26 04:00:57;;;;;;;24.35;5.75;;;25.10;86.40;;;;;;5056196;28;20085;-60
2023/10/26 04:03:24;;;;;;;29.13;5.78;;;25.10;86.70;;;;;;5048649;28;20076;-60
2023/10/26 04:05:51;;;;;;;24.73;6.70;;;25.10;87.10;;;;;;5054197;28;20133;-60
2023/10/26 04:08:17;;;;;;;35.75;7.75;;;25.10;87.40;;;;;;5059798;28;20093;-60
2023/10/26 04:10:43;;;;;;;30.83;8.00;;;25.00;87.80;;;;;;5049307;28;20076;-58
2023/10/26 04:13:10;;;;;;;28.92;8.27;;;25.00;88.20;;;;;;5047417;28;20486;-57
2023/10/26 04:15:36;;;;;;;23.50;7.30;;;25.00;88.50;;;;;;5048375;28;20072;-59
2023/10/26 04:18:06;;;;;;;24.17;7.50;;;24.90;89.00;;;;;;5049434;28;20084;-58
2023/10/26 04:20:33;;;;;;;26.65;7.85;;;24.90;89.30;;;;;;5049476;28;20109;-57
2023/10/26 04:23:00;;;;;;;23.38;7.03;;;24.90;89.50;;;;;;5048885;28;20082;-58
2023/10/26 04:25:29;;;;;;;21.98;6.72;;;24.90;89.80;;;;;;5048716;28;20075;-58
2023/10/26 04:27:56;;;;;;;28.33;7.05;;;24.90;90.00;;;;;;5049387;28;20526;-56
2023/10/26 04:30:22;;;;;;;23.52;6.80;;;24.90;90.10;;;;;;5049076;28;20120;-57
2023/10/26 04:32:50;;;;;;;19.80;6.18;;;24.80;90.30;;;;;;5049268;28;20148;-62
2023/10/26 04:35:16;;;;;;;21.00;5.70;;;24.80;90.40;;;;;;5047399;28;20144;-60
2023/10/26 04:37:43;;;;;;;26.58;6.03;;;24.70;90.50;;;;;;5046646;28;20074;-59
2023/10/26 04:40:10;;;;;;;21.27;5.75;;;24.70;90.70;;;;;;5049282;28;20125;-59
2023/10/26 04:42:37;;;;;;;21.38;5.75;;;24.70;90.70;;;;;;5049231;28;20099;-59
2023/10/26 04:45:04;;;;;;;20.48;5.50;;;24.70;90.90;;;;;;5049415;28;20087;-58
2023/10/26 04:47:30;;;;;;;26.13;7.63;;;24.70;91.00;;;;;;5048483;28;20070;-59
2023/10/26 04:49:56;;;;;;;27.73;8.13;;;24.70;91.10;;;;;;5058207;28;20574;-57
2023/10/26 04:52:23;;;;;;;21.27;6.70;;;24.70;91.10;;;;;;5048116;28;20081;-57
2023/10/26 04:54:49;;;;;;;19.75;5.57;;;24.60;91.20;;;;;;5048181;28;20095;-57
2023/10/26 04:57:16;;;;;;;15.25;5.30;;;24.60;91.30;;;;;;5048140;28;20112;-58
2023/10/26 04:59:42;;;;;;;30.45;5.50;;;24.70;91.40;;;;;;5047212;28;21100;-60
2023/10/26 05:02:09;;;;;;;20.83;5.13;;;24.70;91.50;;;;;;5046999;28;20087;-60
2023/10/26 05:04:36;;;;;;;25.85;5.57;;;24.60;91.50;;;;;;5048291;28;20795;-60
2023/10/26 05:07:02;;;;;;;24.02;4.88;;;24.70;91.60;;;;;;5047534;28;20117;-58
2023/10/26 05:09:30;;;;;;;17.52;4.78;;;24.60;91.60;;;;;;5048608;28;20208;-58
2023/10/26 05:11:56;;;;;;;20.20;4.45;;;24.50;91.80;;;;;;5048650;28;20150;-61
2023/10/26 05:14:23;;;;;;;19.77;4.93;;;24.50;91.80;;;;;;5048943;28;20834;-60
2023/10/26 05:16:51;;;;;;;23.30;4.88;;;24.50;92.00;;;;;;5048601;28;20081;-58
2023/10/26 05:19:18;;;;;;;16.80;4.25;;;24.50;91.90;;;;;;5047872;28;20080;-60
2023/10/26 05:21:44;;;;;;;14.82;3.92;;;24.50;92.00;;;;;;5055139;28;20534;-59
2023/10/26 05:24:11;;;;;;;17.58;3.90;;;24.50;92.20;;;;;;5062722;28;20082;-60
2023/10/26 05:26:37;;;;;;;17.73;4.20;;;24.40;91.70;;;;;;5047718;28;20220;-57
2023/10/26 05:29:04;;;;;;;13.85;4.00;;;24.30;87.40;;;;;;5048185;28;20089;-57
2023/10/26 05:31:30;;;;;;;18.75;3.63;;;24.10;79.80;;;;;;5048161;28;20085;-57
2023/10/26 05:33:58;;;;;;;13.40;4.00;;;24.00;77.20;;;;;;5046793;28;20084;-57
2023/10/26 05:36:25;;;;;;;11.40;3.72;;;23.90;74.20;;;;;;5046081;28;20106;-59
2023/10/26 05:38:51;;;;;;;13.52;3.60;;;23.90;72.10;;;;;;5045978;28;20162;-58
2023/10/26 05:41:18;;;;;;;13.30;4.30;;;23.80;71.30;;;;;;5046586;28;20484;-58
2023/10/26 05:43:44;;;;;;;13.32;4.28;;;23.70;70.90;;;;;;5052171;28;20103;-58
2023/10/26 05:46:13;;;;;;;13.38;3.97;;;23.70;70.20;;;;;;5046919;28;20128;-57
2023/10/26 05:48:39;;;;;;;12.40;3.67;;;23.60;69.30;;;;;;5046842;28;20490;-58
2023/10/26 05:51:06;;;;;;;11.52;3.88;;;23.50;69.40;;;;;;5047384;28;20070;-58
2023/10/26 05:53:32;;;;;;;11.73;3.63;;;23.50;69.30;;;;;;5045450;28;20087;-57
2023/10/26 05:55:59;;;;;;;15.00;3.95;;;23.40;70.00;;;;;;5049978;28;20078;-57
2023/10/26 05:58:26;;;;;;;11.88;3.67;;;23.30;70.30;;;;;;5046550;28;20082;-52
2023/10/26 06:00:53;;;;;;;18.17;4.55;;;23.20;70.20;;;;;;5047331;28;20083;-53
2023/10/26 06:03:20;;;;;;;15.00;4.13;;;23.20;70.60;;;;;;5045116;28;20101;-60
2023/10/26 06:05:49;;;;;;;16.13;4.10;;;23.20;70.60;;;;;;5046849;28;20085;-59
2023/10/26 06:08:16;;;;;;;9.57;3.90;;;23.10;70.80;;;;;;5048237;28;20620;-58
2023/10/26 06:10:42;;;;;;;17.60;4.30;;;23.00;70.80;;;;;;5046228;28;20169;-59
2023/10/26 06:13:09;;;;;;;12.68;4.07;;;22.90;70.50;;;;;;5047553;28;20090;-56
2023/10/26 06:15:36;;;;;;;13.52;4.00;;;22.80;70.80;;;;;;5046815;28;20075;-54
2023/10/26 06:18:03;;;;;;;15.75;4.03;;;22.80;71.00;;;;;;5047290;28;20087;-55
2023/10/26 06:20:29;;;;;;;13.27;4.55;;;22.80;71.40;;;;;;5045540;28;20087;-57
2023/10/26 06:22:56;;;;;;;15.18;5.13;;;22.70;71.80;;;;;;5045652;28;20094;-56
2023/10/26 06:25:25;;;;;;;35.10;19.10;;;22.70;72.40;;;;;;5045564;28;20076;-56
2023/10/26 06:27:51;;;;;;;14.65;4.93;;;22.60;72.50;;;;;;5046130;28;20087;-55
2023/10/26 06:30:18;;;;;;;14.00;5.50;;;22.50;72.90;;;;;;5045517;28;20156;-54
2023/10/26 06:32:44;;;;;;;12.38;4.70;;;22.50;73.20;;;;;;5044681;28;20168;-57
2023/10/26 06:35:11;;;;;;;12.20;5.05;;;22.50;73.10;;;;;;5045583;28;20150;-58
2023/10/26 06:37:38;;;;;;;21.25;5.35;;;22.40;73.20;;;;;;5044832;28;20079;-54
2023/10/26 06:40:06;;;;;;;14.18;5.47;;;22.40;73.30;;;;;;5045246;28;20084;-58
2023/10/26 06:42:33;;;;;;;15.57;5.13;;;22.30;73.00;;;;;;5044979;28;20558;-58
2023/10/26 06:45:00;;;;;;;14.70;5.68;;;22.30;73.40;;;;;;5045527;28;20099;-54
2023/10/26 06:47:26;;;;;;;12.20;5.00;;;22.30;73.70;;;;;;5046234;28;20083;-59
2023/10/26 06:49:53;;;;;;;15.38;5.35;;;22.30;73.20;;;;;;5044965;28;20091;-61
2023/10/26 06:52:19;;;;;;;17.63;4.75;;;22.20;73.00;;;;;;5044717;28;20075;-58
2023/10/26 06:54:49;;;;;;;15.00;4.88;;;22.20;73.30;;;;;;5044155;28;20086;-58
2023/10/26 06:57:16;;;;;;;13.52;4.55;;;22.20;72.70;;;;;;5047096;28;20600;-55
2023/10/26 06:59:43;;;;;;;13.02;4.20;;;22.20;72.50;;;;;;5045015;28;20087;-58
2023/10/26 07:02:13;;;;;;;16.75;4.40;;;22.20;72.40;;;;;;5042818;28;20092;-57
2023/10/26 07:04:39;;;;;;;11.32;4.20;;;22.20;72.50;;;;;;5045513;28;20091;-56
2023/10/26 07:07:07;;;;;;;10.35;3.45;;;22.10;72.10;;;;;;5047003;28;20438;-58
2023/10/26 07:09:35;;;;;;;10.85;3.53;;;22.20;72.10;;;;;;5042940;28;20675;-56
2023/10/26 07:12:01;;;;;;;10.93;3.78;;;22.10;72.10;;;;;;5048027;28;20558;-58
2023/10/26 07:14:29;;;;;;;10.65;3.38;;;22.10;71.90;;;;;;5044149;28;20101;-56
2023/10/26 07:16:55;;;;;;;16.15;3.95;;;22.10;71.60;;;;;;5045515;28;20075;-56
2023/10/26 07:19:22;;;;;;;16.20;4.25;;;22.00;72.00;;;;;;5045181;28;20089;-57
2023/10/26 07:21:48;;;;;;;14.82;4.00;;;22.10;72.00;;;;;;5044695;28;20085;-55
2023/10/26 07:24:15;;;;;;;13.57;3.53;;;22.10;72.00;;;;;;5045828;28;20107;-58
2023/10/26 07:26:41;;;;;;;9.95;3.47;;;22.00;72.00;;;;;;5045884;28;20080;-59
2023/10/26 07:29:07;;;;;;;10.65;3.60;;;22.00;71.80;;;;;;5043857;28;20091;-57
2023/10/26 07:31:34;;;;;;;10.50;4.13;;;22.00;72.50;;;;;;5045138;28;20091;-57
2023/10/26 07:34:00;;;;;;;14.00;3.58;;;22.00;72.00;;;;;;5043941;28;20084;-57
2023/10/26 07:36:30;;;;;;;17.92;3.95;;;22.00;72.00;;;;;;5045189;28;20067;-58
2023/10/26 07:38:57;;;;;;;15.85;4.18;;;22.00;71.60;;;;;;5045031;28;20086;-57
2023/10/26 07:41:26;;;;;;;13.70;3.58;;;22.00;70.90;;;;;;5044894;28;20095;-56
2023/10/26 07:43:53;;;;;;;14.55;3.33;;;22.00;70.50;;;;;;5043709;28;20136;-55
2023/10/26 07:46:20;;;;;;;9.90;3.95;;;22.00;69.70;;;;;;5044984;28;20117;-55
2023/10/26 07:48:47;;;;;;;12.20;3.80;;;22.00;69.30;;;;;;5045468;28;20099;-56
2023/10/26 07:51:13;;;;;;;14.68;4.03;;;22.00;69.40;;;;;;5044396;28;20400;-55
2023/10/26 07:53:39;;;;;;;14.02;4.00;;;22.00;69.90;;;;;;5047128;28;20094;-56
2023/10/26 07:56:06;;;;;;;17.10;3.95;;;21.90;71.20;;;;;;5043874;28;20130;-57
2023/10/26 07:58:33;;;;;;;14.95;3.65;;;21.80;70.60;;;;;;5044093;28;20079;-57
2023/10/26 08:00:59;;;;;;;18.40;4.63;;;21.80;71.40;;;;;;5043855;28;20080;-55
2023/10/26 08:03:27;;;;;;;16.40;4.40;;;21.80;72.40;;;;;;5044668;28;20084;-55
2023/10/26 08:06:00;;;;;;;11.50;3.78;;;21.70;72.00;;;;;;5044762;28;20087;-56
2023/10/26 08:08:27;;;;;;;13.77;3.60;;;21.70;71.70;;;;;;5044141;28;20555;-56
2023/10/26 08:10:54;;;;;;;15.15;4.38;;;21.70;71.90;;;;;;5048464;28;21642;-56
2023/10/26 08:13:20;;;;;;;15.93;3.88;;;21.60;72.20;;;;;;5050380;28;20068;-58
2023/10/26 08:15:47;;;;;;;17.52;4.00;;;21.50;72.20;;;;;;5046935;28;20076;-55
2023/10/26 08:18:13;;;;;;;22.70;4.65;;;21.50;73.00;;;;;;5047870;28;20454;-55
2023/10/26 08:20:40;;;;;;;16.48;3.83;;;21.50;73.20;;;;;;5049196;28;20568;-57
2023/10/26 08:23:07;;;;;;;21.33;4.32;;;21.50;73.50;;;;;;5049040;28;20080;-56
2023/10/26 08:25:36;;;;;;;14.77;4.22;;;21.40;73.50;;;;;;5049176;28;20071;-56
2023/10/26 08:28:03;;;;;;;13.32;3.72;;;21.40;74.00;;;;;;5047690;28;20080;-58
2023/10/26 08:30:30;;;;;;;8.80;3.45;;;21.40;74.10;;;;;;5048092;28;20533;-56
2023/10/26 08:32:56;;;;;;;11.32;4.10;;;21.20;74.70;;;;;;5046591;28;20080;-56
2023/10/26 08:35:23;;;;;;;15.75;4.22;;;21.30;74.70;;;;;;5050675;28;20077;-56
2023/10/26 08:37:49;;;;;;;12.98;3.80;;;21.30;74.70;;;;;;5046770;28;20082;-55
2023/10/26 08:40:16;;;;;;;11.82;3.65;;;21.30;75.00;;;;;;5050438;28;20092;-53
2023/10/26 08:42:43;;;;;;;11.50;4.20;;;21.20;74.80;;;;;;5046737;28;20115;-58
2023/10/26 08:45:21;;;;;;;10.70;4.18;;;21.20;75.20;;;;;;5048306;28;20088;-55
2023/10/26 08:47:50;;;;;;;12.85;4.90;;;21.10;75.50;;;;;;5047181;28;20141;-58
2023/10/26 08:50:21;;;;;;;16.92;5.47;;;21.10;75.90;;;;;;5047609;28;20096;-57
2023/10/26 08:52:48;;;;;;;16.50;5.55;;;21.10;75.80;;;;;;5048795;28;20567;-56
2023/10/26 08:55:15;;;;;;;13.77;5.63;;;21.10;75.90;;;;;;5047698;28;20121;-56
2023/10/26 08:57:50;;;;;;;15.05;4.95;;;21.10;75.70;;;;;;5046103;28;20078;-59
2023/10/26 09:00:17;;;;;;;10.88;4.10;;;21.00;75.10;;;;;;5048518;28;20091;-58
2023/10/26 09:02:43;;;;;;;10.32;4.57;;;21.10;75.60;;;;;;5047589;28;20103;-58
2023/10/26 09:05:11;;;;;;;13.25;4.03;;;21.00;75.50;;;;;;5047153;28;20850;-58
2023/10/26 09:07:38;;;;;;;15.73;4.80;;;21.00;75.40;;;;;;5046205;28;20625;-55
2023/10/26 09:10:05;;;;;;;11.73;4.30;;;21.00;75.50;;;;;;5046949;28;20145;-57
2023/10/26 09:12:31;;;;;;;14.82;5.22;;;20.90;75.30;;;;;;5047184;28;20072;-56
2023/10/26 09:15:03;;;;;;;14.07;4.95;;;20.80;76.10;;;;;;5045935;28;20085;-55
2023/10/26 09:17:31;;;;;;;12.32;4.93;;;20.90;76.20;;;;;;5047302;28;20462;-52
2023/10/26 09:19:58;;;;;;;17.08;6.90;;;20.90;76.00;;;;;;5045652;28;20106;-57
2023/10/26 09:22:40;;;;;;;25.17;8.05;;;20.90;76.00;;;;;;5045870;28;20102;-57
2023/10/26 09:25:10;;;;;;;19.17;8.73;;;20.80;76.20;;;;;;5045575;28;20084;-59
2023/10/26 09:27:38;;;;;;;18.30;8.02;;;20.90;76.10;;;;;;5046130;28;20488;-57
2023/10/26 09:30:05;;;;;;;16.30;7.95;;;20.80;76.10;;;;;;5044372;28;20096;-57
2023/10/26 09:32:36;;;;;;;18.58;7.80;;;20.80;76.20;;;;;;5047290;28;20080;-57
2023/10/26 09:35:04;;;;;;;16.35;7.65;;;20.70;76.60;;;;;;5045999;28;20096;-58
2023/10/26 09:37:30;;;;;;;21.33;7.60;;;20.60;76.90;;;;;;5046388;28;20104;-57
2023/10/26 09:39:58;;;;;;;15.45;7.03;;;20.60;76.70;;;;;;5046019;28;20083;-55
2023/10/26 09:42:25;;;;;;;20.55;7.40;;;20.70;76.80;;;;;;5043754;28;20571;-56
2023/10/26 09:44:52;;;;;;;17.45;7.35;;;20.70;76.70;;;;;;5045477;28;20563;-57
2023/10/26 09:47:19;;;;;;;18.92;7.60;;;20.60;76.40;;;;;;5046716;28;20573;-55
2023/10/26 09:49:47;;;;;;;19.23;7.40;;;20.50;76.70;;;;;;5045673;28;20092;-57
2023/10/26 09:52:13;;;;;;;17.58;6.95;;;20.50;76.90;;;;;;5047365;28;20081;-57
2023/10/26 09:54:41;;;;;;;13.80;6.45;;;20.60;77.30;;;;;;5046482;28;20076;-56
2023/10/26 09:57:29;;;;;;;18.85;5.43;;;20.50;77.50;;;;;;5048157;28;20106;-57
2023/10/26 09:59:58;;;;;;;17.77;5.40;;;20.40;77.70;;;;;;5045146;28;20084;-58
2023/10/26 10:02:25;;;;;;;12.18;5.30;;;20.40;78.40;;;;;;5045902;28;20398;-61
2023/10/26 10:04:51;;;;;;;16.73;5.13;;;20.40;78.50;;;;;;5047241;28;20755;-56
2023/10/26 10:07:38;;;;;;;19.90;4.90;;;20.40;78.60;;;;;;5045506;28;20166;-54
2023/10/26 10:10:13;;;;;;;14.50;5.60;;;20.40;78.80;;;;;;5044009;28;20793;-56
2023/10/26 10:12:42;;;;;;;13.82;4.90;;;20.30;78.50;;;;;;5045455;28;20544;-56
2023/10/26 10:15:13;;;;;;;13.95;4.82;;;20.20;79.40;;;;;;5044958;28;20432;-56
2023/10/26 10:17:45;;;;;;;18.63;4.63;;;20.10;80.10;;;;;;5046060;28;20081;-55
2023/10/26 10:20:17;;;;;;;13.63;5.07;;;20.10;80.10;;;;;;5046471;28;20459;-54
2023/10/26 10:22:53;;;;;;;14.90;5.32;;;20.10;80.20;;;;;;5047783;28;20085;-58
2023/10/26 10:25:22;;;;;;;15.25;5.53;;;20.10;80.50;;;;;;5045666;28;20193;-56
2023/10/26 10:27:49;;;;;;;23.90;5.53;;;20.10;80.60;;;;;;5043038;28;20077;-55
2023/10/26 10:30:21;;;;;;;18.23;5.90;;;20.00;81.10;;;;;;5048374;28;20100;-55
2023/10/26 10:32:49;;;;;;;12.98;5.10;;;20.00;81.40;;;;;;5044504;28;20080;-55
2023/10/26 10:35:21;;;;;;;16.35;5.93;;;20.00;81.60;;;;;;5045200;28;20099;-56
2023/10/26 10:38:13;;;;;;;15.00;5.32;;;20.00;81.10;;;;;;5047165;28;20149;-53
2023/10/26 10:40:59;;;;;;;11.85;4.85;;;20.00;81.80;;;;;;5045011;28;20092;-55
2023/10/26 10:43:40;;;;;;;14.32;4.97;;;20.00;82.10;;;;;;5043252;28;20169;-54
2023/10/26 10:46:21;;;;;;;20.77;5.85;;;20.00;82.30;;;;;;5045365;28;20083;-58
2023/10/26 10:48:57;;;;;;;14.15;5.53;;;19.90;82.10;;;;;;5045376;28;20097;-55
2023/10/26 10:51:37;;;;;;;14.23;5.70;;;19.80;83.20;;;;;;5045601;28;20088;-56
2023/10/26 10:54:08;;;;;;;12.93;5.75;;;19.80;83.20;;;;;;5047959;28;20175;-53
2023/10/26 10:56:43;;;;;;;17.05;6.10;;;19.80;83.30;;;;;;5044719;28;20076;-57
2023/10/26 10:59:25;;;;;;;12.88;5.60;;;19.70;83.20;;;;;;5047506;28;20084;-54
2023/10/26 11:02:06;;;;;;;13.13;5.47;;;19.60;83.70;;;;;;5045358;28;20095;-56
2023/10/26 11:04:33;;;;;;;18.02;5.63;;;19.60;84.10;;;;;;5044025;28;20120;-54
2023/10/26 11:06:59;;;;;;;22.63;6.32;;;19.60;84.40;;;;;;5044372;28;20088;-57
2023/10/26 11:09:38;;;;;;;20.45;6.40;;;19.50;84.40;;;;;;5043998;28;21239;-55
2023/10/26 11:12:11;;;;;;;20.60;6.18;;;19.50;84.90;;;;;;5043380;28;20084;-56
2023/10/26 11:14:52;;;;;;;17.67;6.00;;;19.50;85.00;;;;;;5045705;28;20137;-57
2023/10/26 11:17:19;;;;;;;15.48;5.55;;;19.50;85.30;;;;;;5045167;28;20639;-55
2023/10/26 11:19:47;;;;;;;15.60;5.22;;;19.50;85.40;;;;;;5044490;28;20084;-57
2023/10/26 11:22:15;;;;;;;23.25;6.28;;;19.50;85.80;;;;;;5045238;28;20773;-56
2023/10/26 11:24:42;;;;;;;13.38;5.22;;;19.50;85.90;;;;;;5045390;28;20110;-56
2023/10/26 11:27:12;;;;;;;16.30;5.22;;;19.50;86.00;;;;;;5043864;28;20475;-55
2023/10/26 11:29:40;;;;;;;21.38;5.65;;;19.50;86.00;;;;;;5045476;28;20108;-56
2023/10/26 11:32:19;;;;;;;14.07;5.50;;;19.30;86.80;;;;;;5043147;28;20548;-54
2023/10/26 11:35:26;;;;;;;18.98;5.93;;;19.30;87.20;;;;;;5044526;28;20129;-58
2023/10/26 11:38:02;;;;;;;21.67;5.60;;;19.30;87.20;;;;;;5041245;28;20629;-58
2023/10/26 11:40:31;;;;;;;17.60;5.55;;;19.30;87.00;;;;;;5042180;28;20150;-57
2023/10/26 11:43:00;;;;;;;14.30;6.03;;;19.30;86.90;;;;;;5042833;28;21423;-54
2023/10/26 11:45:27;;;;;;;22.65;5.97;;;19.20;87.20;;;;;;5046967;28;20147;-54
2023/10/26 11:47:55;;;;;;;25.00;6.05;;;19.20;87.50;;;;;;5046341;28;20203;-58
2023/10/26 11:50:21;;;;;;;20.50;5.68;;;19.20;87.50;;;;;;5046816;28;20653;-56
2023/10/26 11:52:48;;;;;;;16.95;5.97;;;19.30;87.60;;;;;;5046411;28;20092;-53
2023/10/26 11:55:15;;;;;;;16.85;6.28;;;19.20;87.60;;;;;;5046332;28;20112;-56
2023/10/26 11:57:42;;;;;;;17.15;6.35;;;19.20;88.20;;;;;;5051087;28;20084;-56
2023/10/26 12:00:11;;;;;;;22.85;6.25;;;19.20;88.30;;;;;;5045928;28;20235;-56
2023/10/26 12:02:38;;;;;;;23.20;5.60;;;19.10;88.60;;;;;;5046020;28;20108;-56
2023/10/26 12:05:07;;;;;;;14.13;5.45;;;19.10;89.00;;;;;;5044165;28;20085;-57
2023/10/26 12:07:34;;;;;;;20.63;5.90;;;19.10;88.70;;;;;;5046347;28;20096;-56
2023/10/26 12:10:03;;;;;;;22.60;6.20;;;19.10;88.50;;;;;;5048311;28;20107;-55
2023/10/26 12:12:29;;;;;;;16.67;6.47;;;19.00;88.60;;;;;;5048429;28;20488;-56
2023/10/26 12:14:56;;;;;;;23.67;6.68;;;19.00;88.80;;;;;;5048108;28;20083;-57
2023/10/26 12:17:23;;;;;;;23.38;7.25;;;18.90;89.20;;;;;;5048352;28;20157;-57
2023/10/26 12:19:49;;;;;;;18.58;6.82;;;19.00;88.90;;;;;;5047319;28;20100;-57
2023/10/26 12:22:16;;;;;;;19.83;6.53;;;19.10;88.90;;;;;;5048897;28;20190;-56
2023/10/26 12:24:43;;;;;;;22.73;7.35;;;19.00;88.80;;;;;;5047852;28;20077;-56
2023/10/26 12:27:09;;;;;;;39.20;7.70;;;19.00;88.90;;;;;;5047979;28;20171;-56
2023/10/26 12:29:36;;;;;;;16.95;6.28;;;19.00;89.10;;;;;;5048522;28;20100;-55
2023/10/26 12:32:02;;;;;;;24.30;6.43;;;19.00;88.80;;;;;;5048857;28;20076;-56
2023/10/26 12:34:29;;;;;;;26.38;6.28;;;19.00;89.30;;;;;;5046539;28;20106;-56
2023/10/26 12:36:55;;;;;;;25.48;7.25;;;19.00;89.50;;;;;;5047453;28;20227;-56
2023/10/26 12:39:21;;;;;;;25.10;6.82;;;19.00;89.80;;;;;;5048019;28;20554;-57
2023/10/26 12:41:48;;;;;;;23.08;6.40;;;19.00;89.90;;;;;;5047254;28;20116;-54